Terminal Aerodrome Forecast
Issued by NWS Detroit/Pontiac, MI

Home | Current Version | Previous Version | Text Only | Print | Product List | Glossary On
Versions: 1 2 3 4 5 6 7 8 9 10 11 12 13 14 15 16 17 18 19
000
FTUS43 KDTX 311457 AAC
TAFFNT
TAF AMD
KFNT 311457Z 3115/0112 26006KT 2SM BR OVC006
     FM311700 27007KT 5SM BR BKN015
     FM311800 26007KT P6SM FEW025
     FM010900 00000KT 3SM BR SKC=

USA.gov is the U.S. government's official web portal to all federal, state and local government web resources and services.